Time;durP1;ratioP1;P1;durP2;ratioP2;P2;SDS_P1;SDS_P2;PMS_P1;PMS_P2;Temp;Humidity;BMP_temperature;BMP_pressure;BME280_temperature;BME280_humidity;BME280_pressure;Samples;Min_cycle;Max_cycle;Signal;HPM_P1;HPM_P2
2023/08/31 00:01:23;;;;;;;9.63;4.93;;;;;;;-143.21;52.17;71035.22;5056738;28;20208;-92
2023/08/31 00:03:50;;;;;;;7.07;3.80;;;;;;;-143.21;52.29;71035.22;5071936;28;20272;-91
2023/08/31 00:06:21;;;;;;;10.05;4.32;;;;;;;-143.21;51.93;71019.38;5069692;28;20208;-91
2023/08/31 00:08:49;;;;;;;9.70;5.22;;;;;;;-143.21;51.79;71005.50;5054741;28;20205;-90
2023/08/31 00:11:16;;;;;;;20.70;6.28;;;;;;;-143.21;51.56;71021.34;5055774;28;20204;-91
2023/08/31 00:13:43;;;;;;;6.75;3.85;;;;;;;-143.21;51.70;71027.28;5056052;28;20656;-91
2023/08/31 00:16:12;;;;;;;9.20;3.83;;;;;;;-143.21;52.02;71025.31;5055815;28;20209;-91
2023/08/31 00:18:39;;;;;;;5.15;3.65;;;;;;;-143.21;51.87;71017.38;5055919;28;20283;-91
2023/08/31 00:21:06;;;;;;;12.13;4.75;;;;;;;-143.21;52.04;71025.31;5055807;28;20264;-91
2023/08/31 00:23:33;;;;;;;6.88;4.07;;;;;;;-143.21;52.24;71027.28;5056248;28;20206;-91
2023/08/31 00:26:01;;;;;;;11.07;4.57;;;;;;;-143.21;52.30;71017.38;5056361;28;20190;-91
2023/08/31 00:28:28;;;;;;;8.00;3.85;;;;;;;-143.21;52.28;71013.41;5057108;28;20691;-90
2023/08/31 00:30:55;;;;;;;7.93;4.05;;;;;;;-143.21;52.21;71017.38;5055388;28;20255;-90
2023/08/31 00:33:22;;;;;;;6.97;3.50;;;;;;;-143.21;52.49;71023.34;5055347;28;20700;-90
2023/08/31 00:35:49;;;;;;;5.07;3.17;;;;;;;-143.21;52.44;71029.28;5054404;28;20190;-90
2023/08/31 00:38:16;;;;;;;6.60;3.63;;;;;;;-143.21;52.17;71025.31;5055332;28;20205;-90
2023/08/31 00:40:45;;;;;;;8.93;3.40;;;;;;;-143.21;52.12;71017.38;5055486;28;20236;-90
2023/08/31 00:43:16;;;;;;;7.13;3.03;;;;;;;-143.21;52.04;71017.38;5055462;28;20190;-89
2023/08/31 00:45:44;;;;;;;5.57;3.10;;;;;;;-143.21;52.00;71019.38;5055761;28;20605;-89
2023/08/31 00:48:12;;;;;;;6.75;2.83;;;;;;;-143.21;51.93;71017.38;5055947;28;20206;-89
2023/08/31 00:50:38;;;;;;;6.15;2.78;;;;;;;-143.21;51.94;71015.41;5060478;28;20237;-90
2023/08/31 00:53:05;;;;;;;4.90;2.65;;;;;;;-143.21;52.01;71007.47;5065866;28;20228;-91
2023/08/31 00:55:33;;;;;;;7.75;2.85;;;;;;;-143.21;51.59;70999.53;5054731;28;20657;-87
2023/08/31 00:58:00;;;;;;;12.90;2.97;;;;;;;-143.21;51.77;70995.56;5059990;28;20213;-87
2023/08/31 01:00:34;;;;;;;7.60;2.80;;;;;;;-143.21;51.79;70999.53;5054013;28;20202;-88
2023/08/31 01:03:08;;;;;;;5.97;3.05;;;;;;;-143.21;52.21;70999.53;5053975;28;20182;-87
2023/08/31 01:05:42;;;;;;;6.38;2.60;;;;;;;-143.21;52.25;71007.47;5053466;28;20202;-87
2023/08/31 01:08:22;;;;;;;5.53;2.80;;;;;;;-143.21;52.36;71009.44;5055675;28;20586;-91
2023/08/31 01:11:00;;;;;;;4.78;2.95;;;;;;;-143.21;52.37;71005.50;5055740;28;20251;-90
2023/08/31 01:13:30;;;;;;;5.13;2.83;;;;;;;-143.21;52.71;71011.44;5063026;28;20223;-90
2023/08/31 01:16:04;;;;;;;4.88;2.58;;;;;;;-143.21;52.71;71015.41;5071204;28;20245;-90
2023/08/31 01:18:33;;;;;;;6.10;2.92;;;;;;;-143.21;52.91;71019.38;5055677;28;20198;-91
2023/08/31 01:21:07;;;;;;;5.68;2.53;;;;;;;-143.21;52.96;71027.28;5055480;28;20705;-92
2023/08/31 01:23:51;;;;;;;4.82;3.03;;;;;;;-143.21;53.09;71033.25;5055244;28;20198;-89
2023/08/31 01:26:18;;;;;;;5.70;2.80;;;;;;;-143.21;53.35;71031.25;5055383;28;20573;-88
2023/08/31 01:28:45;;;;;;;4.75;2.50;;;;;;;-143.21;53.58;71039.19;5054680;28;20277;-90
2023/08/31 01:31:12;;;;;;;6.18;2.80;;;;;;;-143.21;53.76;71041.16;5055082;28;20194;-90
2023/08/31 01:33:39;;;;;;;6.10;2.83;;;;;;;-143.21;53.70;71053.06;5056177;28;20241;-90
2023/08/31 01:36:13;;;;;;;14.50;3.42;;;;;;;-143.21;54.06;71051.09;5055088;28;20559;-90
2023/08/31 01:38:48;;;;;;;6.80;3.20;;;;;;;-143.21;53.54;71035.22;5054982;28;20205;-90
2023/08/31 01:41:19;;;;;;;5.20;3.08;;;;;;;-143.21;53.60;71037.22;5055186;28;20212;-91
2023/08/31 01:43:49;;;;;;;9.20;3.25;;;;;;;-143.21;53.57;71037.22;5055176;28;20282;-90
2023/08/31 01:46:17;;;;;;;10.25;3.00;;;;;;;-143.21;53.74;71041.16;5054818;28;20228;-90
2023/08/31 01:48:43;;;;;;;5.72;3.05;;;;;;;-143.21;53.84;71053.06;5055455;28;20198;-91
2023/08/31 01:51:11;;;;;;;8.35;3.13;;;;;;;-143.21;53.93;71061.00;5054789;28;20686;-92
2023/08/31 01:53:38;;;;;;;5.22;2.95;;;;;;;-143.21;54.16;71072.88;5054585;28;20218;-91
2023/08/31 01:56:06;;;;;;;6.47;3.13;;;;;;;-143.21;54.41;71074.88;5054686;28;20276;-90
2023/08/31 01:58:33;;;;;;;6.63;2.63;;;;;;;-143.21;54.32;71076.84;5054558;28;20201;-90
2023/08/31 02:01:00;;;;;;;6.20;2.85;;;;;;;-143.21;54.09;71080.81;5054546;28;20190;-90
2023/08/31 02:03:27;;;;;;;6.30;2.70;;;;;;;-143.21;54.24;71080.81;5054505;28;20198;-90
2023/08/31 02:05:54;;;;;;;6.15;2.40;;;;;;;-143.21;54.67;71090.72;5054160;28;20190;-90
2023/08/31 02:08:21;;;;;;;6.38;2.38;;;;;;;-143.21;54.72;71100.66;5056215;28;20257;-90
2023/08/31 02:10:48;;;;;;;5.50;2.72;;;;;;;-143.21;54.85;71106.59;5054830;28;20213;-90
2023/08/31 02:13:17;;;;;;;7.35;3.10;;;;;;;-143.21;54.83;71098.66;5054264;28;20222;-90
2023/08/31 02:15:43;;;;;;;5.82;2.70;;;;;;;-143.21;55.31;71096.69;5054373;28;20194;-91
2023/08/31 02:18:10;;;;;;;7.30;3.10;;;;;;;-143.21;54.91;71110.56;5054191;28;20201;-89
2023/08/31 02:20:37;;;;;;;5.50;2.80;;;;;;;-143.21;55.54;71138.31;5054058;28;20249;-90
2023/08/31 02:23:04;;;;;;;5.65;3.05;;;;;;;-143.21;56.16;71164.09;5054659;28;20212;-93
2023/08/31 02:25:31;;;;;;;8.27;3.25;;;;;;;-143.21;55.87;71170.03;5055278;28;20642;-94
2023/08/31 02:27:58;;;;;;;6.05;3.22;;;;;;;-143.21;56.21;71179.94;5054880;28;20205;-93
2023/08/31 02:30:26;;;;;;;9.30;3.08;;;;;;;-143.21;56.79;71193.81;5054939;28;20201;-92
2023/08/31 02:32:53;;;;;;;9.10;3.15;;;;;;;-143.21;56.80;71191.84;5054368;28;20218;-91
2023/08/31 02:35:21;;;;;;;5.88;2.67;;;;;;;-143.21;56.82;71181.94;5053603;28;20545;-89
2023/08/31 02:37:48;;;;;;;4.53;2.70;;;;;;;-143.21;56.32;71177.97;5053426;28;20664;-91
2023/08/31 02:40:15;;;;;;;8.07;2.95;;;;;;;-143.21;56.26;71183.91;5053425;28;20201;-91
2023/08/31 02:42:42;;;;;;;4.85;2.90;;;;;;;-143.21;56.37;71189.84;5053350;28;20201;-88
2023/08/31 02:45:10;;;;;;;7.75;3.80;;;;;;;-143.21;56.93;71191.84;5053246;28;20624;-91
2023/08/31 02:47:38;;;;;;;4.10;2.83;;;;;;;-143.21;56.70;71189.84;5058114;28;20580;-93
2023/08/31 02:50:09;;;;;;;6.25;3.05;;;;;;;-143.21;56.61;71187.88;5054701;28;20205;-91
2023/08/31 02:52:36;;;;;;;6.07;3.30;;;;;;;-143.21;56.70;71179.94;5054827;28;20244;-94
2023/08/31 02:55:04;;;;;;;7.68;3.30;;;;;;;-143.21;56.43;71177.97;5056143;28;20198;-94
2023/08/31 02:57:31;;;;;;;6.50;3.10;;;;;;;-143.21;56.45;71185.88;5057055;28;20209;-93
2023/08/31 02:59:58;;;;;;;13.88;3.33;;;;;;;-143.21;56.75;71195.81;5053515;28;20198;-92
2023/08/31 03:02:25;;;;;;;5.80;3.20;;;;;;;-143.21;56.29;71199.78;5054023;28;20576;-93
2023/08/31 03:04:53;;;;;;;8.20;3.80;;;;;;;-143.21;56.36;71203.72;5053701;28;20638;-92
2023/08/31 03:07:20;;;;;;;8.55;3.95;;;;;;;-143.21;56.86;71217.59;5053806;28;20221;-90
2023/08/31 03:09:50;;;;;;;8.20;3.80;;;;;;;-143.21;57.11;71227.53;5057005;28;20196;-91
2023/08/31 03:12:17;;;;;;;7.40;3.40;;;;;;;-143.21;57.31;71229.50;5071019;28;20221;-91
2023/08/31 03:14:44;;;;;;;10.85;3.17;;;;;;;-143.21;57.58;71229.50;5053790;28;20205;-92
2023/08/31 03:17:11;;;;;;;6.97;3.90;;;;;;;-143.21;57.72;71229.50;5053577;28;20281;-92
2023/08/31 03:19:38;;;;;;;6.28;2.85;;;;;;;-143.21;56.07;71237.44;5053279;28;20194;-92
2023/08/31 03:22:07;;;;;;;7.57;3.00;;;;;;;-143.21;56.32;71231.50;5053485;28;20226;-92
2023/08/31 03:27:56;;;;;;;6.57;3.28;;;;;;;-143.21;56.39;71243.38;5053829;28;20177;-95
2023/08/31 03:30:23;;;;;;;5.05;3.08;;;;;;;-143.21;56.53;71243.38;5056204;28;20198;-94
2023/08/31 03:32:50;;;;;;;6.90;3.05;;;;;;;-143.21;56.34;71241.41;5056459;28;20222;-94
2023/08/31 03:35:17;;;;;;;8.45;3.30;;;;;;;-143.21;56.60;71245.38;5056449;28;20244;-95
2023/08/31 03:37:48;;;;;;;10.98;3.50;;;;;;;-143.21;57.18;71245.38;5057167;28;20208;-95
2023/08/31 03:40:15;;;;;;;8.57;3.08;;;;;;;-143.21;57.20;71261.22;5055523;28;20205;-92
2023/08/31 03:42:42;;;;;;;7.13;3.22;;;;;;;-143.21;57.19;71261.22;5053559;28;20197;-92
2023/08/31 03:45:09;;;;;;;9.20;3.92;;;;;;;-143.21;57.64;71267.19;5053081;28;20198;-92
2023/08/31 03:47:36;;;;;;;8.07;3.42;;;;;;;-143.21;57.96;71265.19;5053169;28;20200;-92
2023/08/31 03:50:03;;;;;;;9.05;3.20;;;;;;;-143.21;58.25;71273.13;5053500;28;20208;-92
2023/08/31 03:52:30;;;;;;;5.35;3.30;;;;;;;-143.21;58.21;71281.06;5054401;28;20222;-93
2023/08/31 03:54:59;;;;;;;10.27;3.67;;;;;;;-143.21;58.29;71292.94;5054216;28;20576;-93
2023/08/31 03:57:26;;;;;;;9.65;4.32;;;;;;;-143.21;58.25;71290.97;5053861;28;20202;-93
2023/08/31 03:59:53;;;;;;;13.27;3.83;;;;;;;-143.21;58.49;71290.97;5053134;28;20652;-93
2023/08/31 04:02:20;;;;;;;8.27;3.60;;;;;;;-143.21;58.81;71308.81;5053847;28;20198;-94
2023/08/31 04:04:47;;;;;;;14.20;5.00;;;;;;;-143.21;58.40;71316.75;5054288;28;20206;-92
2023/08/31 04:07:14;;;;;;;9.65;5.00;;;;;;;-143.21;58.95;71330.63;5053304;28;20204;-93
2023/08/31 04:09:41;;;;;;;10.77;5.28;;;;;;;-143.21;58.88;71334.59;5053846;28;20262;-92
2023/08/31 04:12:09;;;;;;;16.33;8.57;;;;;;;-143.21;59.05;71336.56;5053869;28;20201;-92
2023/08/31 04:14:36;;;;;;;16.88;7.68;;;;;;;-143.21;58.59;71336.56;5053126;28;20712;-93
2023/08/31 04:17:04;;;;;;;25.30;8.38;;;;;;;-143.21;59.08;71338.53;5053489;28;20198;-92
2023/08/31 04:19:31;;;;;;;21.38;8.05;;;;;;;-143.21;59.05;71344.50;5052524;28;20276;-90
2023/08/31 04:21:59;;;;;;;21.02;7.97;;;;;;;-143.21;59.10;71340.53;5052740;28;20198;-91
2023/08/31 04:24:28;;;;;;;21.45;9.80;;;;;;;-143.21;59.00;71330.63;5053501;28;20194;-90
2023/08/31 04:26:55;;;;;;;10.60;5.80;;;;;;;-143.21;58.68;71334.59;5072641;28;20254;-91
2023/08/31 04:29:24;;;;;;;13.40;6.40;;;;;;;-143.21;58.80;71324.66;5072581;28;20208;-90
2023/08/31 04:31:50;;;;;;;13.52;6.03;;;;;;;-143.21;59.05;71332.59;5072327;28;20225;-90
2023/08/31 04:34:17;;;;;;;14.35;6.38;;;;;;;-143.21;59.02;71332.59;5057078;28;20233;-89
2023/08/31 04:36:44;;;;;;;16.83;6.55;;;;;;;-143.21;59.26;71334.59;5052343;28;20285;-92
2023/08/31 04:39:11;;;;;;;19.88;6.90;;;;;;;-143.21;59.52;71342.50;5053535;28;20205;-93
2023/08/31 04:41:38;;;;;;;17.63;7.32;;;;;;;-143.21;60.04;71348.47;5052221;28;20273;-84
2023/08/31 04:44:06;;;;;;;11.73;7.22;;;;;;;-143.21;60.52;71350.44;5050712;28;20190;-85
2023/08/31 04:46:34;;;;;;;18.88;7.43;;;;;;;-143.21;60.71;71348.47;5050780;28;20210;-84
2023/08/31 04:49:01;;;;;;;15.32;6.68;;;;;;;-143.21;60.51;71352.44;5050731;28;20202;-84
2023/08/31 04:51:37;;;;;;;17.80;7.28;;;;;;;-143.21;60.91;71354.41;5052329;28;20206;-84
2023/08/31 04:54:04;;;;;;;13.98;6.78;;;;;;;-143.21;60.64;71350.44;5051945;28;20218;-84
2023/08/31 04:56:33;;;;;;;13.52;6.68;;;;;;;-143.21;60.58;71344.50;5056444;28;20198;-84
2023/08/31 04:59:03;;;;;;;15.40;6.68;;;;;;;-143.21;61.04;71340.53;5056396;28;20260;-84
2023/08/31 05:01:30;;;;;;;11.90;6.45;;;;;;;-143.21;61.03;71340.53;5055616;28;20240;-84
2023/08/31 05:04:00;;;;;;;20.67;6.35;;;;;;;-143.21;60.81;71338.53;5054257;28;20194;-85
2023/08/31 05:06:30;;;;;;;13.52;6.20;;;;;;;-143.21;59.70;71330.63;5054755;28;20578;-85
2023/08/31 05:08:57;;;;;;;14.15;6.15;;;;;;;-143.21;60.23;71340.53;5054619;28;20190;-85
2023/08/31 05:11:24;;;;;;;12.65;6.00;;;;;;;-143.21;60.38;71346.47;5054476;28;20221;-84
2023/08/31 05:13:51;;;;;;;16.70;6.25;;;;;;;-143.21;60.54;71352.44;5053653;28;20218;-86
2023/08/31 05:16:18;;;;;;;21.65;5.90;;;;;;;-143.21;60.47;71352.44;5054038;28;20194;-85
2023/08/31 05:18:45;;;;;;;13.77;5.35;;;;;;;-143.21;60.26;71338.53;5053803;28;20197;-84
2023/08/31 05:21:16;;;;;;;18.25;5.80;;;;;;;-143.21;60.27;71330.63;5040359;28;20620;-84
2023/08/31 05:23:43;;;;;;;15.05;6.00;;;;;;;-143.21;60.18;71328.63;5053102;28;20202;-84
2023/08/31 05:26:10;;;;;;;17.67;5.30;;;;;;;-143.21;59.63;71324.66;5051211;28;20190;-83
2023/08/31 05:28:37;;;;;;;18.52;5.47;;;;;;;-143.21;58.80;71285.03;5052374;28;20198;-83
2023/08/31 05:31:05;;;;;;;10.02;4.53;;;;;;;-143.21;57.84;71287.00;5053318;28;20292;-82
2023/08/31 05:33:33;;;;;;;12.30;4.38;;;;;;;-143.21;57.18;71288.97;5053626;28;20313;-83
2023/08/31 05:36:03;;;;;;;10.05;3.60;;;;;;;-143.21;57.04;71283.03;5052078;28;20210;-86
2023/08/31 05:38:31;;;;;;;10.23;3.88;;;;;;;-143.21;57.45;71277.09;5034899;28;20581;-81
2023/08/31 05:41:06;;;;;;;12.82;4.30;;;;;;;-143.21;57.64;71275.09;5033815;28;20199;-84
2023/08/31 05:43:34;;;;;;;12.00;4.15;;;;;;;-143.21;57.54;71273.13;5065151;28;20670;-83
2023/08/31 05:46:01;;;;;;;10.85;4.50;;;;;;;-143.21;57.87;71261.22;5073259;28;20194;-87
2023/08/31 05:48:28;;;;;;;17.50;4.28;;;;;;;-143.21;57.11;71253.28;5073508;28;20193;-87
2023/08/31 05:50:55;;;;;;;7.78;3.78;;;;;;;-143.21;56.82;71243.38;5072148;28;20284;-84
2023/08/31 05:53:22;;;;;;;16.67;3.60;;;;;;;-143.21;55.70;71223.56;5053159;28;20692;-84
2023/08/31 05:55:50;;;;;;;7.45;2.78;;;;;;;-143.21;55.20;71219.59;5066243;28;20745;-84
2023/08/31 05:58:17;;;;;;;5.72;2.85;;;;;;;-143.21;54.90;71215.63;5072830;28;20227;-84
2023/08/31 06:00:44;;;;;;;7.95;3.30;;;;;;;-143.21;54.75;71207.69;5073133;28;20239;-85
2023/08/31 06:03:11;;;;;;;4.90;3.00;;;;;;;-143.21;54.70;71207.69;5073763;28;20186;-83
2023/08/31 06:05:38;;;;;;;4.80;3.08;;;;;;;-143.21;54.59;71209.69;5067198;28;20661;-84
2023/08/31 06:08:06;;;;;;;11.02;3.40;;;;;;;-143.21;54.55;71201.75;5053889;28;20233;-85
2023/08/31 06:10:32;;;;;;;6.07;3.40;;;;;;;-143.21;53.78;71166.06;5052479;28;20198;-85
2023/08/31 06:13:01;;;;;;;6.82;3.20;;;;;;;-143.21;54.10;71142.28;5053265;28;20609;-85
2023/08/31 06:15:28;;;;;;;10.25;3.42;;;;;;;-143.21;53.47;71128.41;5050777;28;20187;-85
2023/08/31 06:17:55;;;;;;;8.15;2.95;;;;;;;-143.21;53.00;71136.31;5034244;28;20210;-85
2023/08/31 06:20:22;;;;;;;6.75;3.38;;;;;;;-143.21;52.85;71140.28;5041481;28;20233;-85
2023/08/31 06:22:49;;;;;;;10.90;3.30;;;;;;;-143.21;53.27;71152.19;5053285;28;20564;-84
2023/08/31 06:25:18;;;;;;;8.00;2.92;;;;;;;-143.21;53.33;71158.13;5052724;28;20197;-84
2023/08/31 06:27:45;;;;;;;8.73;3.00;;;;;;;-143.21;53.06;71152.19;5052270;28;20661;-83
2023/08/31 06:30:16;;;;;;;7.15;3.10;;;;;;;-143.21;53.09;71160.13;5052444;28;20281;-82
2023/08/31 06:32:44;;;;;;;11.30;3.80;;;;;;;-143.21;53.85;71164.09;5032417;28;20568;-84
2023/08/31 06:35:11;;;;;;;9.75;3.88;;;;;;;-143.21;53.80;71154.16;5046802;28;20259;-83
2023/08/31 06:37:38;;;;;;;6.63;3.75;;;;;;;-143.21;53.83;71160.13;5072458;28;20733;-83
2023/08/31 06:40:08;;;;;;;10.98;4.20;;;;;;;-143.21;54.06;71160.13;5072874;28;20193;-84
2023/08/31 06:42:35;;;;;;;13.52;4.60;;;;;;;-143.21;54.23;71156.16;5072578;28;20220;-82
2023/08/31 06:45:02;;;;;;;11.90;5.35;;;;;;;-143.21;54.43;71148.22;5071941;28;20201;-81
2023/08/31 06:47:30;;;;;;;13.80;5.18;;;;;;;-143.21;54.20;71118.50;5037821;28;20635;-81
2023/08/31 06:49:57;;;;;;;13.40;4.82;;;;;;;-143.21;53.51;71086.75;5031710;28;20206;-77
2023/08/31 06:52:24;;;;;;;14.98;5.18;;;;;;;-143.21;52.75;71068.94;5048682;28;20279;-77
2023/08/31 06:54:54;;;;;;;9.60;4.45;;;;;;;-143.21;52.05;71053.06;5051452;28;20226;-77
2023/08/31 06:57:25;;;;;;;7.93;4.10;;;;;;;-143.21;51.98;71049.09;5052034;28;20636;-78
2023/08/31 06:59:52;;;;;;;14.10;5.00;;;;;;;-143.21;51.28;71041.16;5050849;28;20214;-78
2023/08/31 07:02:22;;;;;;;12.55;4.30;;;;;;;-143.21;51.38;71053.06;5050924;28;20225;-80
2023/08/31 07:04:52;;;;;;;9.15;4.10;;;;;;;-143.21;51.28;71053.06;5051369;28;20765;-77
2023/08/31 07:07:19;;;;;;;13.13;4.22;;;;;;;-143.21;51.41;71045.13;5051173;28;20194;-76
2023/08/31 07:09:48;;;;;;;11.80;4.60;;;;;;;-143.21;51.42;71031.25;5050592;28;20259;-77
2023/08/31 07:12:17;;;;;;;12.63;4.03;;;;;;;-143.21;51.19;71027.28;5050767;28;20277;-78
2023/08/31 07:14:43;;;;;;;12.27;3.60;;;;;;;-143.21;49.79;71019.38;5051196;28;20218;-78
2023/08/31 07:17:10;;;;;;;12.85;4.05;;;;;;;-143.21;49.08;71031.25;5057301;28;20220;-78
2023/08/31 07:19:37;;;;;;;9.60;3.50;;;;;;;-143.21;48.90;71013.41;5070911;28;20193;-78
2023/08/31 07:22:06;;;;;;;10.02;3.58;;;;;;;-143.21;48.47;71003.50;5046226;28;20210;-79
2023/08/31 07:24:34;;;;;;;4.53;2.85;;;;;;;-143.21;47.37;71001.53;5031193;28;20195;-79
2023/08/31 07:27:03;;;;;;;7.68;3.00;;;;;;;-143.21;47.83;70981.69;5032168;28;20743;-77
2023/08/31 07:29:31;;;;;;;6.95;2.85;;;;;;;-143.21;47.25;70967.81;5030928;28;20226;-83
2023/08/31 07:31:59;;;;;;;9.93;2.85;;;;;;;-143.21;47.26;70934.13;5046327;28;20747;-81
2023/08/31 07:34:32;;;;;;;4.13;2.65;;;;;;;-143.21;45.68;70926.19;5051203;28;20606;-82
2023/08/31 07:37:03;;;;;;;4.40;2.85;;;;;;;-143.21;45.67;70912.31;5051458;28;20224;-80
2023/08/31 07:39:45;;;;;;;6.50;2.67;;;;;;;-143.21;45.38;70916.28;5050801;28;20217;-83
2023/08/31 07:42:29;;;;;;;;;;;;;;;;;;;;;
2023/08/31 07:45:10;;;;;;;9.00;2.55;;;;;;;-143.21;45.07;70926.19;5051645;28;20182;-82
2023/08/31 07:50:35;;;;;;;7.88;3.30;;;;;;;-143.21;45.64;70908.34;5047014;28;20206;-80
2023/08/31 07:53:26;;;;;;;;;;;;;;;;;;;;;
2023/08/31 07:55:57;;;;;;;4.32;2.28;;;;;;;-143.21;45.08;70872.66;5050827;28;20641;-80
2023/08/31 07:58:39;;;;;;;5.90;2.60;;;;;;;-143.21;44.36;70854.84;5050929;28;20278;-82
2023/08/31 08:01:06;;;;;;;6.68;2.78;;;;;;;-143.21;43.96;70842.94;5051754;28;20272;-85
2023/08/31 08:03:33;;;;;;;6.40;2.85;;;;;;;-143.21;43.72;70827.06;5051188;28;20194;-83
2023/08/31 08:06:08;;;;;;;5.90;2.40;;;;;;;-143.21;43.07;70809.25;5050914;28;20194;-84
2023/08/31 08:11:31;;;;;;;6.18;3.22;;;;;;;-143.21;43.06;70815.19;5048957;28;20255;-82
2023/08/31 08:13:58;;;;;;;8.65;3.83;;;;;;;-143.21;43.67;70837.00;5055020;28;20218;-82
2023/08/31 08:16:25;;;;;;;8.38;4.00;;;;;;;-143.21;43.99;70844.91;5051105;28;20222;-86
2023/08/31 08:19:00;;;;;;;8.43;3.50;;;;;;;-143.21;43.62;70844.91;5051089;28;20190;-83
2023/08/31 08:22:06;;;;;;;;;;;;;;;;;;;;;
2023/08/31 08:27:47;;;;;;;5.53;3.35;;;;;;;-143.21;40.54;70799.31;5040566;28;20239;-84
2023/08/31 08:30:15;;;;;;;7.57;3.80;;;;;;;-143.21;41.10;70811.22;5052683;28;20198;-84
2023/08/31 08:32:43;;;;;;;9.25;3.70;;;;;;;-143.21;40.09;70811.22;5054830;28;20615;-83
2023/08/31 08:35:09;;;;;;;8.30;4.35;;;;;;;-143.21;39.87;70805.28;5054779;28;20222;-82
2023/08/31 08:37:36;;;;;;;6.28;3.97;;;;;;;-143.21;38.86;70801.31;5054834;28;20197;-81
2023/08/31 08:40:04;;;;;;;8.07;4.28;;;;;;;-143.21;38.92;70803.28;5056004;28;20198;-81
2023/08/31 08:42:36;;;;;;;8.27;4.63;;;;;;;-143.21;37.95;70811.22;5055047;28;20190;-82
2023/08/31 08:45:06;;;;;;;8.45;4.63;;;;;;;-143.21;38.45;70803.28;5054651;28;20186;-84
2023/08/31 08:47:34;;;;;;;7.57;3.80;;;;;;;-143.21;39.17;70785.44;5054515;28;20197;-83
2023/08/31 08:50:03;;;;;;;7.97;4.40;;;;;;;-143.21;38.52;70763.66;5054770;28;20649;-84
2023/08/31 08:52:30;;;;;;;8.30;4.30;;;;;;;-143.21;37.58;70731.94;5054614;28;20248;-81
2023/08/31 08:54:58;;;;;;;6.93;4.25;;;;;;;-143.21;37.03;70716.06;5054290;28;20704;-81
2023/08/31 08:57:25;;;;;;;8.10;4.50;;;;;;;-143.21;36.66;70682.38;5054370;28;20213;-82
2023/08/31 08:59:52;;;;;;;8.73;4.35;;;;;;;-143.21;35.46;70670.47;5054730;28;20201;-81
2023/08/31 09:02:20;;;;;;;10.05;4.72;;;;;;;-143.21;34.67;70660.56;5052937;28;20198;-80
2023/08/31 09:04:47;;;;;;;8.80;4.20;;;;;;;-143.21;36.70;70668.50;5051184;28;20214;-82
2023/08/31 09:07:14;;;;;;;7.57;4.55;;;;;;;-143.21;36.28;70664.53;5054202;28;20202;-82
2023/08/31 09:09:51;;;;;;;8.73;4.38;;;;;;;-143.21;35.75;70664.53;5049073;28;20883;-81
2023/08/31 09:12:18;;;;;;;7.13;4.38;;;;;;;-143.21;36.21;70674.44;5064334;28;20266;-82
2023/08/31 09:14:44;;;;;;;7.75;4.32;;;;;;;-143.21;36.47;70682.38;5073729;28;20221;-82
2023/08/31 09:17:12;;;;;;;7.15;4.07;;;;;;;-143.21;36.65;70684.34;5074296;28;20186;-82
2023/08/31 09:19:40;;;;;;;6.88;4.47;;;;;;;-143.21;36.74;70680.38;5073763;28;20200;-81
2023/08/31 09:22:07;;;;;;;10.02;4.20;;;;;;;-143.21;36.33;70676.44;5074418;28;20186;-81
2023/08/31 09:24:42;;;;;;;9.32;4.80;;;;;;;-143.21;35.96;70686.34;5072799;28;20226;-81
2023/08/31 09:27:10;;;;;;;9.45;4.47;;;;;;;-143.21;36.11;70678.41;5053804;28;20209;-83
2023/08/31 09:29:39;;;;;;;5.45;4.10;;;;;;;-143.21;36.71;70666.50;5054073;28;20198;-81
2023/08/31 09:32:07;;;;;;;6.15;4.18;;;;;;;-143.21;36.83;70672.47;5053501;28;20186;-81
2023/08/31 09:34:34;;;;;;;9.15;4.32;;;;;;;-143.21;36.50;70664.53;5052915;28;20313;-81
2023/08/31 09:37:08;;;;;;;10.10;4.45;;;;;;;-143.21;36.94;70662.56;5062463;28;20193;-80
2023/08/31 09:39:37;;;;;;;7.60;4.60;;;;;;;-143.21;37.31;70626.88;5074748;28;20190;-81
2023/08/31 09:42:04;;;;;;;9.95;4.70;;;;;;;-143.21;36.68;70597.13;5073474;28;20664;-83
2023/08/31 09:44:31;;;;;;;7.88;4.60;;;;;;;-143.21;36.26;70593.19;5073711;28;20197;-83
2023/08/31 09:46:59;;;;;;;7.90;4.88;;;;;;;-143.21;34.85;70607.06;5073246;28;20255;-82
2023/08/31 09:49:26;;;;;;;6.32;4.40;;;;;;;-143.21;33.50;70660.56;5073468;28;20190;-82
2023/08/31 09:51:54;;;;;;;6.88;4.22;;;;;;;-143.21;33.46;70650.66;5061728;28;20201;-81
2023/08/31 09:54:29;;;;;;;7.50;4.53;;;;;;;-143.21;33.01;70626.88;5072724;28;20194;-81
2023/08/31 09:56:58;;;;;;;7.20;4.38;;;;;;;-143.21;34.49;70593.19;5055811;28;20205;-82
2023/08/31 09:59:25;;;;;;;6.25;4.40;;;;;;;-143.21;32.64;70569.38;5053492;28;20190;-83
2023/08/31 10:01:52;;;;;;;6.97;4.43;;;;;;;-143.21;32.34;70521.81;5035020;28;20203;-82
2023/08/31 10:04:19;;;;;;;8.07;4.95;;;;;;;-143.21;32.70;70486.16;5033147;28;20199;-82
2023/08/31 10:06:46;;;;;;;6.65;4.45;;;;;;;-143.21;33.06;70474.25;5033155;28;20747;-83
2023/08/31 10:09:15;;;;;;;5.60;4.13;;;;;;;-143.21;31.64;70452.44;5033216;28;20252;-82
2023/08/31 10:11:43;;;;;;;7.85;4.90;;;;;;;-143.21;30.15;70430.66;5033511;28;20222;-84
2023/08/31 10:14:13;;;;;;;6.05;4.53;;;;;;;-143.21;30.05;70440.56;5033869;28;20284;-82
2023/08/31 10:16:42;;;;;;;6.47;4.85;;;;;;;-143.21;29.21;70442.53;5047442;28;20647;-81
2023/08/31 10:19:09;;;;;;;8.45;5.43;;;;;;;-143.21;30.08;70444.53;5055289;28;20190;-82
2023/08/31 10:21:37;;;;;;;6.00;4.72;;;;;;;-143.21;30.78;70430.66;5040843;28;20709;-82
2023/08/31 10:24:04;;;;;;;7.13;4.50;;;;;;;-143.21;31.09;70387.03;5034041;28;20297;-82
2023/08/31 10:26:32;;;;;;;5.78;4.40;;;;;;;-143.21;30.17;70365.25;5038153;28;20681;-83
2023/08/31 10:29:02;;;;;;;6.13;4.38;;;;;;;-143.21;31.22;70373.16;5055253;28;20201;-83
2023/08/31 10:31:30;;;;;;;7.03;4.60;;;;;;;-143.21;31.72;70391.00;5033311;28;20199;-83
2023/08/31 10:33:58;;;;;;;8.55;4.82;;;;;;;-143.21;31.59;70377.13;5033562;28;20197;-83
2023/08/31 10:36:38;;;;;;;7.88;4.82;;;;;;;-143.21;31.97;70387.03;5033019;28;20219;-83
2023/08/31 10:39:12;;;;;;;8.45;4.28;;;;;;;-143.21;31.92;70434.59;5033188;28;20560;-83
2023/08/31 10:41:39;;;;;;;5.60;4.10;;;;;;;-143.21;32.39;70486.16;5033271;28;20225;-83
2023/08/31 10:44:21;;;;;;;7.30;4.70;;;;;;;-143.21;32.93;70527.75;5032929;28;20210;-82
2023/08/31 10:46:49;;;;;;;7.15;4.43;;;;;;;-143.21;33.42;70531.72;5037295;28;20183;-81
2023/08/31 10:49:17;;;;;;;8.93;4.28;;;;;;;-143.21;34.05;70527.75;5041404;28;20262;-82
2023/08/31 10:51:46;;;;;;;5.93;4.18;;;;;;;-143.21;33.90;70500.00;5037630;28;20210;-83
2023/08/31 10:54:34;;;;;;;11.95;4.28;;;;;;;-143.21;32.57;70480.19;5032410;28;20637;-84
2023/08/31 10:57:06;;;;;;;6.05;3.90;;;;;;;-143.21;33.05;70472.25;5041167;28;20202;-83
2023/08/31 10:59:48;;;;;;;5.82;4.35;;;;;;;-143.21;33.14;70432.63;5052249;28;20190;-83
2023/08/31 11:02:32;;;;;;;6.60;4.22;;;;;;;-143.21;33.17;70387.03;5012663;28;20650;-83
2023/08/31 11:05:14;;;;;;;10.07;4.82;;;;;;;-143.21;32.78;70385.06;5012750;28;20199;-83
2023/08/31 11:07:42;;;;;;;6.72;4.03;;;;;;;-143.21;32.59;70353.34;5019207;28;20222;-83
2023/08/31 11:10:11;;;;;;;13.52;8.38;;;;;;;-143.21;32.35;70363.25;5032119;28;20629;-84
2023/08/31 11:12:37;;;;;;;5.93;4.15;;;;;;;-143.21;32.87;70426.69;5032028;28;20673;-84
2023/08/31 11:15:07;;;;;;;6.95;4.40;;;;;;;-143.21;33.30;70426.69;5031978;28;20250;-83
2023/08/31 11:17:34;;;;;;;10.73;4.30;;;;;;;-143.21;32.54;70418.75;5049581;28;20273;-83
2023/08/31 11:20:05;;;;;;;10.13;4.40;;;;;;;-143.21;32.41;70432.63;5050099;28;20302;-84
2023/08/31 11:22:32;;;;;;;7.28;4.10;;;;;;;-143.21;33.58;70458.41;5049531;28;20241;-83
2023/08/31 11:25:00;;;;;;;5.18;3.53;;;;;;;-143.21;33.48;70440.56;5052249;28;20237;-82
2023/08/31 11:27:26;;;;;;;5.45;4.07;;;;;;;-143.21;33.26;70444.53;5039874;28;20211;-80
2023/08/31 11:29:53;;;;;;;9.20;4.25;;;;;;;-143.21;32.91;70434.59;5029738;28;20293;-82
2023/08/31 11:32:24;;;;;;;7.72;4.10;;;;;;;-143.21;32.84;70424.69;5031750;28;20191;-81
2023/08/31 11:34:52;;;;;;;7.78;3.72;;;;;;;-143.21;32.15;70426.69;5032311;28;20206;-82
2023/08/31 11:37:21;;;;;;;6.05;3.75;;;;;;;-143.21;33.84;70446.50;5031224;28;20191;-86
2023/08/31 11:39:51;;;;;;;8.88;3.65;;;;;;;-143.21;34.88;70472.25;5031495;28;20194;-85